sensor_id;sensor_type;location;lat;lon;timestamp;pressure;altitude;pressure_sealevel;temperature;humidity
11487;BME280;10510;47.942;9.442;2022-08-19T00:00:11;94263.53;;;15.59;100.00
11487;BME280;10510;47.942;9.442;2022-08-19T00:02:14;94266.72;;;15.61;100.00
11487;BME280;10510;47.942;9.442;2022-08-19T00:04:16;94277.25;;;15.61;100.00
11487;BME280;10510;47.942;9.442;2022-08-19T00:06:17;94265.13;;;15.60;100.00
11487;BME280;10510;47.942;9.442;2022-08-19T00:08:17;94259.06;;;15.60;100.00
11487;BME280;10510;47.942;9.442;2022-08-19T00:10:19;94253.00;;;15.59;100.00
11487;BME280;10510;47.942;9.442;2022-08-19T00:12:20;94257.69;;;15.57;100.00
11487;BME280;10510;47.942;9.442;2022-08-19T00:14:21;94271.88;;;15.56;100.00
11487;BME280;10510;47.942;9.442;2022-08-19T00:16:23;94282.63;;;15.55;100.00
11487;BME280;10510;47.942;9.442;2022-08-19T00:18:24;94290.31;;;15.56;100.00
11487;BME280;10510;47.942;9.442;2022-08-19T00:20:24;94296.59;;;15.55;100.00
11487;BME280;10510;47.942;9.442;2022-08-19T00:22:24;94300.63;;;15.58;100.00
11487;BME280;10510;47.942;9.442;2022-08-19T00:24:28;94302.25;;;15.59;100.00
11487;BME280;10510;47.942;9.442;2022-08-19T00:26:29;94288.25;;;15.58;100.00
11487;BME280;10510;47.942;9.442;2022-08-19T00:28:29;94294.91;;;15.61;100.00
11487;BME280;10510;47.942;9.442;2022-08-19T00:30:30;94284.38;;;15.61;100.00
11487;BME280;10510;47.942;9.442;2022-08-19T00:32:30;94283.38;;;15.62;100.00
11487;BME280;10510;47.942;9.442;2022-08-19T00:34:30;94278.09;;;15.62;100.00
11487;BME280;10510;47.942;9.442;2022-08-19T00:36:31;94284.97;;;15.63;100.00
11487;BME280;10510;47.942;9.442;2022-08-19T00:38:34;94277.84;;;15.63;100.00
11487;BME280;10510;47.942;9.442;2022-08-19T00:40:34;94285.31;;;15.66;100.00
11487;BME280;10510;47.942;9.442;2022-08-19T00:42:35;94283.66;;;15.72;100.00
11487;BME280;10510;47.942;9.442;2022-08-19T00:44:35;94281.00;;;15.72;100.00
11487;BME280;10510;47.942;9.442;2022-08-19T00:46:37;94284.09;;;15.69;100.00
11487;BME280;10510;47.942;9.442;2022-08-19T00:48:38;94282.91;;;15.65;100.00
11487;BME280;10510;47.942;9.442;2022-08-19T00:50:40;94271.78;;;15.63;100.00
11487;BME280;10510;47.942;9.442;2022-08-19T00:52:47;94273.38;;;15.64;100.00
11487;BME280;10510;47.942;9.442;2022-08-19T00:54:48;94277.41;;;15.66;100.00
11487;BME280;10510;47.942;9.442;2022-08-19T00:56:49;94269.75;;;15.65;100.00
11487;BME280;10510;47.942;9.442;2022-08-19T00:58:49;94269.50;;;15.66;100.00
11487;BME280;10510;47.942;9.442;2022-08-19T01:00:50;94269.88;;;15.70;100.00
11487;BME280;10510;47.942;9.442;2022-08-19T01:02:51;94276.41;;;15.67;100.00
11487;BME280;10510;47.942;9.442;2022-08-19T01:04:52;94269.75;;;15.65;100.00
11487;BME280;10510;47.942;9.442;2022-08-19T01:06:52;94279.91;;;15.61;100.00
11487;BME280;10510;47.942;9.442;2022-08-19T01:08:54;94271.00;;;15.62;100.00
11487;BME280;10510;47.942;9.442;2022-08-19T01:10:56;94272.00;;;15.61;100.00
11487;BME280;10510;47.942;9.442;2022-08-19T01:12:58;94275.22;;;15.63;100.00
11487;BME280;10510;47.942;9.442;2022-08-19T01:14:59;94275.22;;;15.63;100.00
11487;BME280;10510;47.942;9.442;2022-08-19T01:17:00;94274.19;;;15.64;100.00
11487;BME280;10510;47.942;9.442;2022-08-19T01:19:01;94258.78;;;15.68;100.00
11487;BME280;10510;47.942;9.442;2022-08-19T01:21:11;94264.19;;;15.73;100.00
11487;BME280;10510;47.942;9.442;2022-08-19T01:23:16;94255.38;;;15.79;100.00
11487;BME280;10510;47.942;9.442;2022-08-19T01:25:19;94263.66;;;15.83;100.00
11487;BME280;10510;47.942;9.442;2022-08-19T01:27:21;94255.06;;;15.87;100.00
11487;BME280;10510;47.942;9.442;2022-08-19T01:29:22;94255.66;;;15.89;100.00
11487;BME280;10510;47.942;9.442;2022-08-19T01:31:25;94246.69;;;15.90;100.00
11487;BME280;10510;47.942;9.442;2022-08-19T01:33:25;94249.94;;;15.93;100.00
11487;BME280;10510;47.942;9.442;2022-08-19T01:35:29;94251.31;;;15.95;100.00
11487;BME280;10510;47.942;9.442;2022-08-19T01:37:42;94249.69;;;15.94;100.00
11487;BME280;10510;47.942;9.442;2022-08-19T01:39:42;94258.41;;;15.95;100.00
11487;BME280;10510;47.942;9.442;2022-08-19T01:41:43;94260.47;;;15.93;100.00
11487;BME280;10510;47.942;9.442;2022-08-19T01:43:43;94259.44;;;15.94;100.00
11487;BME280;10510;47.942;9.442;2022-08-19T01:45:45;94256.59;;;15.95;100.00
11487;BME280;10510;47.942;9.442;2022-08-19T01:47:46;94249.47;;;15.96;100.00
11487;BME280;10510;47.942;9.442;2022-08-19T01:49:46;94248.44;;;15.97;100.00
11487;BME280;10510;47.942;9.442;2022-08-19T01:51:48;94248.69;;;15.95;100.00
11487;BME280;10510;47.942;9.442;2022-08-19T01:53:50;94246.25;;;15.94;100.00
11487;BME280;10510;47.942;9.442;2022-08-19T01:55:51;94250.72;;;15.93;100.00
11487;BME280;10510;47.942;9.442;2022-08-19T01:57:57;94243.41;;;15.95;100.00
11487;BME280;10510;47.942;9.442;2022-08-19T01:59:58;94248.44;;;15.97;100.00
11487;BME280;10510;47.942;9.442;2022-08-19T02:01:59;94245.78;;;15.97;100.00
11487;BME280;10510;47.942;9.442;2022-08-19T02:03:59;94252.09;;;15.96;100.00
11487;BME280;10510;47.942;9.442;2022-08-19T02:06:02;94244.19;;;15.96;100.00
11487;BME280;10510;47.942;9.442;2022-08-19T02:08:03;94239.53;;;15.98;100.00
11487;BME280;10510;47.942;9.442;2022-08-19T02:10:10;94234.81;;;16.00;100.00
11487;BME280;10510;47.942;9.442;2022-08-19T02:12:10;94237.69;;;15.98;100.00
11487;BME280;10510;47.942;9.442;2022-08-19T02:14:11;94238.72;;;15.97;100.00
11487;BME280;10510;47.942;9.442;2022-08-19T02:16:11;94237.91;;;15.97;100.00
11487;BME280;10510;47.942;9.442;2022-08-19T02:18:12;94242.22;;;15.91;100.00
11487;BME280;10510;47.942;9.442;2022-08-19T02:20:12;94236.63;;;15.87;100.00
11487;BME280;10510;47.942;9.442;2022-08-19T02:22:13;94237.88;;;15.85;100.00
11487;BME280;10510;47.942;9.442;2022-08-19T02:24:13;94236.28;;;15.84;100.00
11487;BME280;10510;47.942;9.442;2022-08-19T02:26:14;94242.91;;;15.86;100.00
11487;BME280;10510;47.942;9.442;2022-08-19T02:28:14;94241.09;;;15.87;100.00
11487;BME280;10510;47.942;9.442;2022-08-19T02:30:16;94241.88;;;15.87;100.00
11487;BME280;10510;47.942;9.442;2022-08-19T02:32:18;94250.81;;;15.86;100.00
11487;BME280;10510;47.942;9.442;2022-08-19T02:34:19;94248.78;;;15.88;100.00
11487;BME280;10510;47.942;9.442;2022-08-19T02:36:20;94247.50;;;15.91;100.00
11487;BME280;10510;47.942;9.442;2022-08-19T02:38:20;94243.63;;;15.94;100.00
11487;BME280;10510;47.942;9.442;2022-08-19T02:40:28;94238.13;;;15.95;100.00
11487;BME280;10510;47.942;9.442;2022-08-19T02:42:28;94228.41;;;15.96;100.00
11487;BME280;10510;47.942;9.442;2022-08-19T02:44:29;94225.75;;;15.96;100.00
11487;BME280;10510;47.942;9.442;2022-08-19T02:46:32;94221.28;;;15.96;100.00
11487;BME280;10510;47.942;9.442;2022-08-19T02:48:32;94217.41;;;15.99;100.00
11487;BME280;10510;47.942;9.442;2022-08-19T02:50:32;94222.22;;;16.02;100.00
11487;BME280;10510;47.942;9.442;2022-08-19T02:52:33;94222.22;;;16.02;100.00
11487;BME280;10510;47.942;9.442;2022-08-19T02:54:34;94216.94;;;16.02;100.00
11487;BME280;10510;47.942;9.442;2022-08-19T02:56:36;94231.97;;;16.01;100.00
11487;BME280;10510;47.942;9.442;2022-08-19T02:58:37;94230.38;;;16.00;100.00
11487;BME280;10510;47.942;9.442;2022-08-19T03:00:46;94226.91;;;16.00;100.00
11487;BME280;10510;47.942;9.442;2022-08-19T03:02:46;94222.66;;;15.99;100.00
11487;BME280;10510;47.942;9.442;2022-08-19T03:04:48;94220.03;;;15.99;100.00
11487;BME280;10510;47.942;9.442;2022-08-19T03:06:49;94226.09;;;15.99;100.00
11487;BME280;10510;47.942;9.442;2022-08-19T03:08:49;94221.06;;;15.98;100.00
11487;BME280;10510;47.942;9.442;2022-08-19T03:10:49;94223.91;;;15.96;100.00
11487;BME280;10510;47.942;9.442;2022-08-19T03:12:51;94228.19;;;15.97;100.00
11487;BME280;10510;47.942;9.442;2022-08-19T03:14:52;94221.06;;;15.98;100.00
11487;BME280;10510;47.942;9.442;2022-08-19T03:16:52;94223.72;;;15.98;100.00
11487;BME280;10510;47.942;9.442;2022-08-19T03:18:55;94234.25;;;15.98;100.00
11487;BME280;10510;47.942;9.442;2022-08-19T03:20:56;94233.66;;;15.96;100.00
11487;BME280;10510;47.942;9.442;2022-08-19T03:22:56;94234.13;;;15.93;100.00
11487;BME280;10510;47.942;9.442;2022-08-19T03:24:56;94243.84;;;15.92;100.00
11487;BME280;10510;47.942;9.442;2022-08-19T03:26:57;94244.66;;;15.93;100.00
11487;BME280;10510;47.942;9.442;2022-08-19T03:29:02;94241.44;;;15.90;100.00
11487;BME280;10510;47.942;9.442;2022-08-19T03:31:09;94245.69;;;15.92;100.00
11487;BME280;10510;47.942;9.442;2022-08-19T03:33:10;94243.63;;;15.94;100.00
11487;BME280;10510;47.942;9.442;2022-08-19T03:35:13;94242.03;;;15.93;100.00
11487;BME280;10510;47.942;9.442;2022-08-19T03:37:14;94234.91;;;15.93;100.00
11487;BME280;10510;47.942;9.442;2022-08-19T03:39:15;94238.94;;;15.96;100.00
11487;BME280;10510;47.942;9.442;2022-08-19T03:41:18;94236.09;;;15.97;100.00
11487;BME280;10510;47.942;9.442;2022-08-19T03:43:19;94231.63;;;15.98;100.00
11487;BME280;10510;47.942;9.442;2022-08-19T03:45:19;94236.88;;;15.98;100.00
11487;BME280;10510;47.942;9.442;2022-08-19T03:47:19;94231.63;;;15.98;100.00
11487;BME280;10510;47.942;9.442;2022-08-19T03:49:20;94225.31;;;15.99;100.00
11487;BME280;10510;47.942;9.442;2022-08-19T03:51:29;94221.88;;;15.98;100.00
11487;BME280;10510;47.942;9.442;2022-08-19T03:53:32;94223.91;;;15.96;100.00
11487;BME280;10510;47.942;9.442;2022-08-19T03:55:33;94220.28;;;15.97;100.00
11487;BME280;10510;47.942;9.442;2022-08-19T03:57:33;94215.00;;;15.97;100.00
11487;BME280;10510;47.942;9.442;2022-08-19T03:59:36;94221.28;;;15.96;100.00
11487;BME280;10510;47.942;9.442;2022-08-19T04:01:36;94222.09;;;15.97;100.00
11487;BME280;10510;47.942;9.442;2022-08-19T04:03:37;94215.00;;;15.97;100.00
11487;BME280;10510;47.942;9.442;2022-08-19T04:05:38;94218.19;;;15.99;100.00
11487;BME280;10510;47.942;9.442;2022-08-19T04:07:38;94225.88;;;16.01;100.00
11487;BME280;10510;47.942;9.442;2022-08-19T04:09:38;94219.38;;;16.03;100.00
11487;BME280;10510;47.942;9.442;2022-08-19T04:11:45;94224.19;;;16.06;100.00
11487;BME280;10510;47.942;9.442;2022-08-19T04:13:45;94221.53;;;16.06;100.00
11487;BME280;10510;47.942;9.442;2022-08-19T04:15:46;94215.44;;;16.06;100.00
11487;BME280;10510;47.942;9.442;2022-08-19T04:17:46;94218.91;;;16.06;100.00
11487;BME280;10510;47.942;9.442;2022-08-19T04:19:46;94220.50;;;16.07;100.00
11487;BME280;10510;47.942;9.442;2022-08-19T04:21:50;94211.81;;;16.07;100.00
11487;BME280;10510;47.942;9.442;2022-08-19T04:23:51;94209.97;;;16.07;100.00
11487;BME280;10510;47.942;9.442;2022-08-19T04:25:52;94211.56;;;16.08;100.00
11487;BME280;10510;47.942;9.442;2022-08-19T04:27:52;94200.22;;;16.08;100.00
11487;BME280;10510;47.942;9.442;2022-08-19T04:29:52;94204.69;;;16.07;100.00
11487;BME280;10510;47.942;9.442;2022-08-19T04:31:55;94207.13;;;16.09;100.00
11487;BME280;10510;47.942;9.442;2022-08-19T04:33:56;94207.13;;;16.09;100.00
11487;BME280;10510;47.942;9.442;2022-08-19T04:35:58;94208.13;;;16.08;100.00
11487;BME280;10510;47.942;9.442;2022-08-19T04:37:58;94217.66;;;16.09;100.00
11487;BME280;10510;47.942;9.442;2022-08-19T04:39:59;94218.47;;;16.09;100.00
11487;BME280;10510;47.942;9.442;2022-08-19T04:42:18;94223.72;;;16.09;100.00
11487;BME280;10510;47.942;9.442;2022-08-19T04:44:37;94231.41;;;16.11;100.00
11487;BME280;10510;47.942;9.442;2022-08-19T04:46:37;94237.25;;;16.13;100.00
11487;BME280;10510;47.942;9.442;2022-08-19T04:48:39;94243.56;;;16.12;100.00
11487;BME280;10510;47.942;9.442;2022-08-19T04:50:40;94248.47;;;16.08;100.00
11487;BME280;10510;47.942;9.442;2022-08-19T04:52:41;94256.59;;;16.07;100.00
11487;BME280;10510;47.942;9.442;2022-08-19T04:54:44;94255.81;;;16.06;100.00
11487;BME280;10510;47.942;9.442;2022-08-19T04:56:45;94256.59;;;16.07;100.00
11487;BME280;10510;47.942;9.442;2022-08-19T04:58:45;94266.91;;;16.08;100.00
11487;BME280;10510;47.942;9.442;2022-08-19T05:00:45;94262.69;;;16.07;100.00
11487;BME280;10510;47.942;9.442;2022-08-19T05:02:46;94262.69;;;16.07;100.00
11487;BME280;10510;47.942;9.442;2022-08-19T05:04:46;94260.03;;;16.07;100.00
11487;BME280;10510;47.942;9.442;2022-08-19T05:06:48;94270.78;;;16.06;100.00
11487;BME280;10510;47.942;9.442;2022-08-19T05:08:49;94270.78;;;16.06;100.00
11487;BME280;10510;47.942;9.442;2022-08-19T05:10:51;94269.19;;;16.05;100.00
11487;BME280;10510;47.942;9.442;2022-08-19T05:12:51;94273.66;;;16.04;100.00
11487;BME280;10510;47.942;9.442;2022-08-19T05:14:51;94276.31;;;16.04;100.00
11487;BME280;10510;47.942;9.442;2022-08-19T05:16:52;94269.19;;;16.05;100.00
11487;BME280;10510;47.942;9.442;2022-08-19T05:18:53;94267.38;;;16.05;100.00
11487;BME280;10510;47.942;9.442;2022-08-19T05:21:15;94263.94;;;16.05;100.00
11487;BME280;10510;47.942;9.442;2022-08-19T05:23:35;94271.03;;;16.04;100.00
11487;BME280;10510;47.942;9.442;2022-08-19T05:25:39;94269.19;;;16.05;100.00
11487;BME280;10510;47.942;9.442;2022-08-19T05:27:41;94277.09;;;16.05;100.00
11487;BME280;10510;47.942;9.442;2022-08-19T05:29:41;94283.97;;;16.06;100.00
11487;BME280;10510;47.942;9.442;2022-08-19T05:31:43;94280.91;;;16.09;100.00
11487;BME280;10510;47.942;9.442;2022-08-19T05:33:43;94284.34;;;16.09;100.00
11487;BME280;10510;47.942;9.442;2022-08-19T05:35:44;94278.84;;;16.11;100.00
11487;BME280;10510;47.942;9.442;2022-08-19T05:37:44;94283.91;;;16.12;100.00
11487;BME280;10510;47.942;9.442;2022-08-19T05:39:44;94284.91;;;16.11;100.00
11487;BME280;10510;47.942;9.442;2022-08-19T05:41:47;94292.16;;;16.16;100.00
11487;BME280;10510;47.942;9.442;2022-08-19T05:43:48;94293.75;;;16.17;100.00
11487;BME280;10510;47.942;9.442;2022-08-19T05:45:50;94289.72;;;16.15;100.00
11487;BME280;10510;47.942;9.442;2022-08-19T05:47:50;94282.66;;;16.15;100.00
11487;BME280;10510;47.942;9.442;2022-08-19T05:49:50;94278.38;;;16.14;100.00
11487;BME280;10510;47.942;9.442;2022-08-19T05:51:51;94282.66;;;16.15;100.00
11487;BME280;10510;47.942;9.442;2022-08-19T05:53:51;94283.44;;;16.16;100.00
11487;BME280;10510;47.942;9.442;2022-08-19T05:55:51;94282.66;;;16.15;100.00
11487;BME280;10510;47.942;9.442;2022-08-19T05:57:52;94280.81;;;16.16;100.00
11487;BME280;10510;47.942;9.442;2022-08-19T05:59:52;94283.19;;;16.17;100.00
11487;BME280;10510;47.942;9.442;2022-08-19T06:01:53;94280.56;;;16.17;100.00
11487;BME280;10510;47.942;9.442;2022-08-19T06:03:57;94279.56;;;16.18;100.00
11487;BME280;10510;47.942;9.442;2022-08-19T06:05:57;94283.19;;;16.17;100.00
11487;BME280;10510;47.942;9.442;2022-08-19T06:07:59;94273.47;;;16.18;100.00
11487;BME280;10510;47.942;9.442;2022-08-19T06:09:59;94279.31;;;16.20;100.00
11487;BME280;10510;47.942;9.442;2022-08-19T06:11:59;94271.19;;;16.21;100.00
11487;BME280;10510;47.942;9.442;2022-08-19T06:14:03;94269.34;;;16.22;100.00
11487;BME280;10510;47.942;9.442;2022-08-19T06:16:04;94267.53;;;16.22;100.00
11487;BME280;10510;47.942;9.442;2022-08-19T06:18:04;94277.03;;;16.23;100.00
11487;BME280;10510;47.942;9.442;2022-08-19T06:20:06;94267.31;;;16.24;100.00
11487;BME280;10510;47.942;9.442;2022-08-19T06:22:08;94276.00;;;16.24;100.00
11487;BME280;10510;47.942;9.442;2022-08-19T06:24:14;94274.97;;;16.25;100.00
11487;BME280;10510;47.942;9.442;2022-08-19T06:26:15;94279.19;;;16.26;100.00
11487;BME280;10510;47.942;9.442;2022-08-19T06:28:16;94275.56;;;16.27;100.00
11487;BME280;10510;47.942;9.442;2022-08-19T06:30:16;94278.19;;;16.27;100.00
11487;BME280;10510;47.942;9.442;2022-08-19T06:32:17;94279.78;;;16.28;100.00
11487;BME280;10510;47.942;9.442;2022-08-19T06:34:19;94282.22;;;16.30;100.00
11487;BME280;10510;47.942;9.442;2022-08-19T06:36:22;94282.56;;;16.33;100.00
11487;BME280;10510;47.942;9.442;2022-08-19T06:38:27;94282.31;;;16.35;100.00
11487;BME280;10510;47.942;9.442;2022-08-19T06:40:27;94281.31;;;16.36;100.00
11487;BME280;10510;47.942;9.442;2022-08-19T06:42:28;94280.25;;;16.37;100.00
11487;BME280;10510;47.942;9.442;2022-08-19T06:44:30;94289.31;;;16.41;100.00
11487;BME280;10510;47.942;9.442;2022-08-19T06:46:35;94296.81;;;16.44;100.00
11487;BME280;10510;47.942;9.442;2022-08-19T06:48:35;94298.16;;;16.47;100.00
11487;BME280;10510;47.942;9.442;2022-08-19T06:50:36;94294.97;;;16.45;100.00
11487;BME280;10510;47.942;9.442;2022-08-19T06:52:36;94301.03;;;16.45;100.00
11487;BME280;10510;47.942;9.442;2022-08-19T06:54:37;94294.38;;;16.43;100.00
11487;BME280;10510;47.942;9.442;2022-08-19T06:56:39;94292.31;;;16.45;100.00
11487;BME280;10510;47.942;9.442;2022-08-19T06:58:39;94295.50;;;16.47;100.00
11487;BME280;10510;47.942;9.442;2022-08-19T07:00:40;94299.78;;;16.48;100.00
11487;BME280;10510;47.942;9.442;2022-08-19T07:02:41;94299.78;;;16.48;100.00
11487;BME280;10510;47.942;9.442;2022-08-19T07:04:41;94290.03;;;16.48;100.00
11487;BME280;10510;47.942;9.442;2022-08-19T07:06:43;94303.22;;;16.48;100.00
11487;BME280;10510;47.942;9.442;2022-08-19T07:08:45;94299.53;;;16.49;100.00
11487;BME280;10510;47.942;9.442;2022-08-19T07:10:46;94300.00;;;16.46;100.00
11487;BME280;10510;47.942;9.442;2022-08-19T07:12:47;94301.84;;;16.46;100.00
11487;BME280;10510;47.942;9.442;2022-08-19T07:14:49;94300.25;;;16.45;100.00
11487;BME280;10510;47.942;9.442;2022-08-19T07:16:51;94307.34;;;16.44;100.00
11487;BME280;10510;47.942;9.442;2022-08-19T07:18:51;94312.38;;;16.46;100.00
11487;BME280;10510;47.942;9.442;2022-08-19T07:21:02;94301.38;;;16.49;100.00
11487;BME280;10510;47.942;9.442;2022-08-19T07:23:02;94309.28;;;16.49;100.00
11487;BME280;10510;47.942;9.442;2022-08-19T07:25:05;94312.97;;;16.48;100.00
11487;BME280;10510;47.942;9.442;2022-08-19T07:27:06;94312.16;;;16.47;100.00
11487;BME280;10510;47.942;9.442;2022-08-19T07:29:07;94311.94;;;16.49;100.00
11487;BME280;10510;47.942;9.442;2022-08-19T07:31:11;94316.16;;;16.50;100.00
11487;BME280;10510;47.942;9.442;2022-08-19T07:33:12;94317.19;;;16.49;100.00
11487;BME280;10510;47.942;9.442;2022-08-19T07:35:12;94316.16;;;16.50;100.00
11487;BME280;10510;47.942;9.442;2022-08-19T07:37:12;94314.34;;;16.50;100.00
11487;BME280;10510;47.942;9.442;2022-08-19T07:39:19;94314.34;;;16.50;100.00
11487;BME280;10510;47.942;9.442;2022-08-19T07:41:22;94311.47;;;16.52;100.00
11487;BME280;10510;47.942;9.442;2022-08-19T07:43:23;94312.50;;;16.51;100.00
11487;BME280;10510;47.942;9.442;2022-08-19T07:45:25;94315.16;;;16.51;100.00
11487;BME280;10510;47.942;9.442;2022-08-19T07:47:25;94314.69;;;16.54;100.00
11487;BME280;10510;47.942;9.442;2022-08-19T07:49:28;94310.44;;;16.53;100.00
11487;BME280;10510;47.942;9.442;2022-08-19T07:51:28;94311.72;;;16.50;100.00
11487;BME280;10510;47.942;9.442;2022-08-19T07:53:30;94317.00;;;16.50;100.00
11487;BME280;10510;47.942;9.442;2022-08-19T07:55:30;94309.88;;;16.51;100.00
11487;BME280;10510;47.942;9.442;2022-08-19T07:57:30;94311.47;;;16.52;100.00
11487;BME280;10510;47.942;9.442;2022-08-19T07:59:31;94315.94;;;16.51;100.00
11487;BME280;10510;47.942;9.442;2022-08-19T08:01:31;94308.25;;;16.50;100.00
11487;BME280;10510;47.942;9.442;2022-08-19T08:03:33;94311.13;;;16.48;100.00
11487;BME280;10510;47.942;9.442;2022-08-19T08:05:52;94316.41;;;16.48;100.00
11487;BME280;10510;47.942;9.442;2022-08-19T08:08:12;94312.16;;;16.47;100.00
11487;BME280;10510;47.942;9.442;2022-08-19T08:10:31;94317.66;;;16.46;100.00
11487;BME280;10510;47.942;9.442;2022-08-19T08:12:36;94314.81;;;16.47;100.00
11487;BME280;10510;47.942;9.442;2022-08-19T08:14:45;94313.75;;;16.48;100.00
11487;BME280;10510;47.942;9.442;2022-08-19T08:16:46;94317.19;;;16.49;100.00
11487;BME280;10510;47.942;9.442;2022-08-19T08:18:47;94317.00;;;16.50;100.00
11487;BME280;10510;47.942;9.442;2022-08-19T08:20:47;94315.16;;;16.51;100.00
11487;BME280;10510;47.942;9.442;2022-08-19T08:22:47;94318.78;;;16.50;100.00
11487;BME280;10510;47.942;9.442;2022-08-19T08:25:16;94319.63;;;16.50;100.00
11487;BME280;10510;47.942;9.442;2022-08-19T08:27:17;94324.06;;;16.50;100.00
11487;BME280;10510;47.942;9.442;2022-08-19T08:29:18;94323.53;;;16.48;100.00
11487;BME280;10510;47.942;9.442;2022-08-19T08:31:19;94321.34;;;16.45;100.00
11487;BME280;10510;47.942;9.442;2022-08-19T08:33:22;94320.28;;;16.46;100.00
11487;BME280;10510;47.942;9.442;2022-08-19T08:35:23;94317.19;;;16.49;100.00
11487;BME280;10510;47.942;9.442;2022-08-19T08:37:24;94323.72;;;16.46;100.00
11487;BME280;10510;47.942;9.442;2022-08-19T08:39:24;94323.19;;;16.44;100.00
11487;BME280;10510;47.942;9.442;2022-08-19T08:41:37;94330.25;;;16.44;100.00
11487;BME280;10510;47.942;9.442;2022-08-19T08:43:44;94327.28;;;16.40;100.00
11487;BME280;10510;47.942;9.442;2022-08-19T08:45:52;94331.16;;;16.38;100.00
11487;BME280;10510;47.942;9.442;2022-08-19T08:47:57;94334.84;;;16.37;100.00
11487;BME280;10510;47.942;9.442;2022-08-19T08:50:18;94329.56;;;16.37;100.00
11487;BME280;10510;47.942;9.442;2022-08-19T08:52:28;94338.72;;;16.34;100.00
11487;BME280;10510;47.942;9.442;2022-08-19T08:54:50;94341.59;;;16.32;100.00
11487;BME280;10510;47.942;9.442;2022-08-19T08:56:53;94347.88;;;16.31;100.00
11487;BME280;10510;47.942;9.442;2022-08-19T08:59:07;94348.13;;;16.30;100.00
11487;BME280;10510;47.942;9.442;2022-08-19T09:01:11;94343.88;;;16.29;100.00
11487;BME280;10510;47.942;9.442;2022-08-19T09:03:29;94345.13;;;16.26;100.00
11487;BME280;10510;47.942;9.442;2022-08-19T09:05:41;94350.63;;;16.25;100.00
11487;BME280;10510;47.942;9.442;2022-08-19T09:07:52;94359.00;;;16.22;100.00
11487;BME280;10510;47.942;9.442;2022-08-19T09:10:06;94356.56;;;16.20;100.00
11487;BME280;10510;47.942;9.442;2022-08-19T09:12:47;94358.63;;;16.18;100.00
11487;BME280;10510;47.942;9.442;2022-08-19T09:15:00;94367.34;;;16.19;100.00
11487;BME280;10510;47.942;9.442;2022-08-19T09:17:01;94370.56;;;16.21;100.00
11487;BME280;10510;47.942;9.442;2022-08-19T09:19:08;94382.94;;;16.20;100.00
11487;BME280;10510;47.942;9.442;2022-08-19T09:21:09;94377.66;;;16.20;100.00
11487;BME280;10510;47.942;9.442;2022-08-19T09:23:09;94367.50;;;16.24;100.00
11487;BME280;10510;47.942;9.442;2022-08-19T09:25:13;94364.63;;;16.25;100.00
11487;BME280;10510;47.942;9.442;2022-08-19T09:27:14;94367.03;;;16.27;100.00
11487;BME280;10510;47.942;9.442;2022-08-19T09:29:15;94362.22;;;16.24;100.00
11487;BME280;10510;47.942;9.442;2022-08-19T09:31:18;94365.41;;;16.26;100.00
11487;BME280;10510;47.942;9.442;2022-08-19T09:33:19;94367.84;;;16.27;100.00
11487;BME280;10510;47.942;9.442;2022-08-19T09:35:25;94364.63;;;16.25;100.00
11487;BME280;10510;47.942;9.442;2022-08-19T09:37:26;94365.41;;;16.26;100.00
11487;BME280;10510;47.942;9.442;2022-08-19T09:39:27;94361.53;;;16.28;100.00
11487;BME280;10510;47.942;9.442;2022-08-19T09:41:27;94367.03;;;16.27;100.00
11487;BME280;10510;47.942;9.442;2022-08-19T09:43:28;94376.19;;;16.24;100.00
11487;BME280;10510;47.942;9.442;2022-08-19T09:45:28;94377.78;;;16.25;100.00
11487;BME280;10510;47.942;9.442;2022-08-19T09:47:29;94377.78;;;16.25;100.00
11487;BME280;10510;47.942;9.442;2022-08-19T09:49:29;94370.69;;;16.26;100.00
11487;BME280;10510;47.942;9.442;2022-08-19T09:51:29;94373.09;;;16.27;100.00
11487;BME280;10510;47.942;9.442;2022-08-19T09:53:30;94374.72;;;16.28;100.00
11487;BME280;10510;47.942;9.442;2022-08-19T09:55:30;94380.56;;;16.30;100.00
11487;BME280;10510;47.942;9.442;2022-08-19T09:57:30;94380.56;;;16.30;100.00
11487;BME280;10510;47.942;9.442;2022-08-19T09:59:30;94379.78;;;16.30;100.00
11487;BME280;10510;47.942;9.442;2022-08-19T10:01:32;94377.94;;;16.30;100.00
11487;BME280;10510;47.942;9.442;2022-08-19T10:03:34;94380.13;;;16.33;100.00
11487;BME280;10510;47.942;9.442;2022-08-19T10:05:35;94383.78;;;16.32;100.00
11487;BME280;10510;47.942;9.442;2022-08-19T10:07:50;94387.78;;;16.35;100.00
11487;BME280;10510;47.942;9.442;2022-08-19T10:09:50;94388.63;;;16.35;100.00
11487;BME280;10510;47.942;9.442;2022-08-19T10:11:50;94389.41;;;16.36;100.00
11487;BME280;10510;47.942;9.442;2022-08-19T10:13:51;94400.19;;;16.34;100.00
11487;BME280;10510;47.942;9.442;2022-08-19T10:15:53;94399.63;;;16.32;100.00
11487;BME280;10510;47.942;9.442;2022-08-19T10:17:55;94401.22;;;16.33;100.00
11487;BME280;10510;47.942;9.442;2022-08-19T10:19:55;94396.75;;;16.34;100.00
11487;BME280;10510;47.942;9.442;2022-08-19T10:21:55;94401.56;;;16.37;100.00
11487;BME280;10510;47.942;9.442;2022-08-19T10:23:59;94394.25;;;16.39;100.00
11487;BME280;10510;47.942;9.442;2022-08-19T10:26:00;94401.34;;;16.39;100.00
11487;BME280;10510;47.942;9.442;2022-08-19T10:28:00;94397.88;;;16.38;100.00
11487;BME280;10510;47.942;9.442;2022-08-19T10:30:01;94402.38;;;16.38;100.00
11487;BME280;10510;47.942;9.442;2022-08-19T10:32:06;94405.00;;;16.38;100.00
11487;BME280;10510;47.942;9.442;2022-08-19T10:34:08;94405.00;;;16.38;100.00
11487;BME280;10510;47.942;9.442;2022-08-19T10:36:15;94413.50;;;16.40;100.00
11487;BME280;10510;47.942;9.442;2022-08-19T10:38:17;94424.19;;;16.45;100.00
11487;BME280;10510;47.942;9.442;2022-08-19T10:40:17;94417.44;;;16.49;100.00